Latest Weather Observations for Penrith

IDN60901

Issued at 11:11 pm EST Wednesday 16 August 2017 (issued every 10 minutes, with the page automatically refreshed every 10 minutes)

About weather observations | Map of Sydney area stations | Latest observations for Sydney area | Other Formats
Station Details ID: 067113 Name: PENRITH LAKES AWS Lat: -33.72 Lon: 150.68 Height: 24.7 m
Data from the previous 72 hours. | See also: Recent months at Penrith
Date/Time
EST
Temp
°C
App
Temp
°C
Dew
Point
°C
Rel
Hum
%
Delta-T
°C
Wind Press
QNH
hPa
Press
MSL
hPa
Rain since
9am
mm
Dir  Spd
km/h
Gust
km/h
Spd
kts
Gust
kts
16/11:00pm 16.2 12.5 2.6 40 6.1 N 11 32 6 17 - - 0.2
16/10:30pm 15.9 11.9 3.0 42 5.9 NW 13 24 7 13 - - 0.2
16/10:00pm 15.3 11.4 3.5 45 5.4 NW 13 24 7 13 - - 0.2
16/09:30pm 15.7 12.3 3.8 45 5.5 NW 11 20 6 11 - - 0.2
16/09:00pm 16.0 12.2 3.8 44 5.6 NW 13 26 7 14 - - 0.2
16/08:30pm 16.2 12.3 3.6 43 5.8 NW 13 24 7 13 - - 0.2
16/08:00pm 16.4 11.8 3.5 42 5.9 WNW 17 30 9 16 - - 0.2
16/07:30pm 16.5 11.4 3.2 41 6.1 WNW 19 32 10 17 - - 0.2
16/07:00pm 16.4 11.6 2.8 40 6.2 W 17 28 9 15 - - 0.2
16/06:30pm 17.1 11.4 2.7 38 6.6 W 22 37 12 20 - - 0.2
16/06:00pm 17.3 12.0 2.9 38 6.6 W 20 35 11 19 - - 0.2
16/05:30pm 17.5 12.8 3.0 38 6.7 W 17 35 9 19 - - 0.2
16/05:00pm 18.4 11.9 2.7 35 7.2 W 26 44 14 24 - - 0.2
16/04:38pm 18.9 12.1 3.1 35 7.4 W 28 44 15 24 - - 0.2
16/04:30pm 19.0 14.8 4.0 37 7.1 WSW 15 22 8 12 - - 0.2
16/04:00pm 19.6 15.1 4.1 36 7.4 W 17 28 9 15 - - 0.2
16/03:30pm 19.6 13.3 3.7 35 7.5 W 26 43 14 23 - - 0.2
16/03:00pm 20.2 13.6 4.3 35 7.7 W 28 50 15 27 - - 0.2
16/02:48pm 19.8 12.4 3.9 35 7.6 WNW 32 50 17 27 - - 0.2
16/02:30pm 19.9 13.2 3.6 34 7.7 WNW 28 44 15 24 - - 0.2
16/02:00pm 19.9 11.4 3.2 33 7.9 WNW 37 56 20 30 - - 0.2
16/01:34pm 20.7 13.4 4.7 35 7.8 WNW 32 52 17 28 - - 0.2
16/01:30pm 20.3 12.8 4.4 35 7.7 WNW 33 52 18 28 - - 0.2
16/01:00pm 20.6 14.6 5.4 37 7.5 W 26 61 14 33 - - 0.2
16/12:33pm 20.3 14.4 7.3 43 6.6 WNW 28 52 15 28 - - 0.0
16/12:30pm 20.0 14.3 6.7 42 6.7 WNW 26 52 14 28 - - 0.0
16/12:04pm 19.6 13.4 7.7 46 6.1 WNW 30 50 16 27 - - 0.0
16/12:00pm 19.5 14.4 7.6 46 6.1 WNW 24 39 13 21 - - 0.0
16/11:30am 19.5 12.9 7.6 46 6.1 WNW 32 54 17 29 - - 0.0
16/11:01am 19.2 13.6 8.8 51 5.4 WNW 28 48 15 26 - - 0.0
16/11:00am 19.0 13.7 8.4 50 5.5 WNW 26 48 14 26 - - 0.0
16/10:30am 16.9 11.4 10.5 66 3.4 NW 30 57 16 31 - - 0.0
16/10:28am 16.9 11.9 11.0 68 3.2 NW 28 57 15 31 - - 0.0
16/10:22am 16.6 12.2 10.5 67 3.2 NW 24 39 13 21 - - 0.0
16/10:00am 17.3 9.9 10.0 62 3.9 WNW 39 61 21 33 - - 0.0
16/09:30am 19.8 13.5 8.8 49 5.8 W 32 56 17 30 - - 0.0
16/09:13am 20.4 14.8 8.7 47 6.1 W 28 48 15 26 - - 0.0
16/09:00am 20.8 17.3 8.8 46 6.3 W 17 28 9 15 - - 0.2
16/08:32am 20.4 14.8 8.7 47 6.1 W 28 52 15 28 - - 0.2
16/08:30am 20.3 15.0 8.6 47 6.1 W 26 52 14 28 - - 0.2
16/08:16am 20.2 14.6 8.8 48 6.0 WNW 28 48 15 26 - - 0.2
16/08:00am 19.9 15.9 8.9 49 5.8 WNW 20 39 11 21 - - 0.2
16/07:30am 19.8 13.4 8.5 48 5.9 W 32 54 17 29 - - 0.2
16/07:00am 20.6 12.5 7.2 42 6.9 W 39 69 21 37 - - 0.2
16/06:38am 22.7 15.2 3.3 28 9.3 W 32 59 17 32 - - 0.2
16/06:30am 23.6 16.0 3.0 26 9.9 W 32 52 17 28 - - 0.2
16/06:21am 24.2 18.4 2.4 24 10.4 W 22 52 12 28 - - 0.2
16/06:00am 21.4 16.9 4.0 32 8.4 NNW 17 24 9 13 - - 0.2
16/05:30am 21.1 16.9 3.8 32 8.3 N 15 28 8 15 - - 0.2
16/05:00am 22.2 16.8 4.3 31 8.8 N 22 30 12 16 - - 0.2
16/04:30am 21.5 16.9 5.8 36 7.9 NNW 19 26 10 14 - - 0.2
16/04:12am 17.7 15.8 6.6 48 5.5 WNW 6 13 3 7 - - 0.2
16/04:00am 12.7 11.3 7.2 69 2.7 WSW 4 6 2 3 - - 0.2
16/03:30am 13.2 11.2 6.1 62 3.4 NE 6 11 3 6 - - 0.2
16/03:00am 13.4 11.6 7.8 69 2.8 N 7 9 4 5 - - 0.2
16/02:30am 13.9 10.9 7.7 66 3.1 N 13 17 7 9 - - 0.2
16/02:00am 14.6 11.1 7.4 62 3.5 NNW 15 19 8 10 - - 0.2
16/01:30am 14.7 11.1 6.8 59 3.8 N 15 20 8 11 - - 0.2
16/01:00am 15.1 10.8 6.9 58 4.0 N 19 22 10 12 - - 0.2
16/12:30am 15.4 10.1 6.7 56 4.3 N 24 26 13 14 - - 0.2
16/12:00am 15.0 10.9 7.8 62 3.6 N 19 22 10 12 - - 0.2
 
Date/Time
EST
Temp
°C
App
Temp
°C
Dew
Point
°C
Rel
Hum
%
Delta-T
°C
Wind Press
QNH
hPa
Press
MSL
hPa
Rain since
9am
mm
Dir  Spd
km/h
Gust
km/h
Spd
kts
Gust
kts
15/11:30pm 15.4 11.3 7.9 61 3.8 N 19 24 10 13 - - 0.2
15/11:00pm 12.9 9.6 8.2 73 2.3 NNE 15 17 8 9 - - 0.2
15/10:30pm 12.9 10.2 9.0 77 2.0 NE 13 15 7 8 - - 0.2
15/10:00pm 13.1 10.4 9.0 76 2.1 NNE 13 15 7 8 - - 0.2
15/09:30pm 14.3 11.7 9.5 73 2.5 N 13 15 7 8 - - 0.2
15/09:00pm 14.4 13.4 10.2 76 2.2 N 6 11 3 6 - - 0.2
15/08:30pm 13.7 13.4 12.6 93 0.6 N 6 9 3 5 - - 0.2
15/08:00pm 14.4 14.2 13.0 91 0.8 N 6 7 3 4 - - 0.2
15/07:30pm 14.5 14.2 12.7 89 1.0 NNW 6 7 3 4 - - 0.2
15/07:00pm 16.3 16.4 12.7 79 2.0 NE 4 6 2 3 - - 0.2
15/06:30pm 16.2 16.9 12.2 77 2.2 CALM 0 0 0 0 - - 0.2
15/06:00pm 16.4 16.8 12.4 77 2.2 W 2 6 1 3 - - 0.2
15/05:30pm 17.0 17.5 11.7 71 2.9 CALM 0 0 0 0 - - 0.2
15/05:00pm 20.5 21.1 12.0 58 4.7 CALM 0 0 0 0 - - 0.2
15/04:30pm 21.5 21.9 11.2 52 5.7 CALM 0 4 0 2 - - 0.2
15/04:00pm 22.2 22.6 11.3 50 6.1 CALM 0 4 0 2 - - 0.2
15/03:30pm 21.6 21.6 11.0 51 5.8 N 2 6 1 3 - - 0.2
15/03:00pm 21.2 21.1 10.7 51 5.7 NNE 2 6 1 3 - - 0.2
15/02:30pm 19.6 19.4 10.6 56 4.9 N 2 6 1 3 - - 0.2
15/02:00pm 17.0 16.2 9.7 62 3.8 WNW 4 9 2 5 - - 0.2
15/01:30pm 16.1 14.7 8.8 62 3.7 W 6 7 3 4 - - 0.2
15/01:00pm 15.3 14.1 9.4 68 3.0 NNE 6 7 3 4 - - 0.2
15/12:30pm 12.1 11.0 8.6 79 1.7 SW 4 6 2 3 - - 0.2
15/12:00pm 10.8 10.1 8.7 87 1.0 N 2 4 1 2 - - 0.2
15/11:30am 10.6 10.3 10.1 97 0.3 N 2 4 1 2 - - 0.2
15/11:00am 9.7 9.2 9.4 98 0.1 S 2 6 1 3 - - 0.2
15/10:30am 10.3 9.8 9.5 95 0.4 WNW 2 6 1 3 - - 0.0
15/10:00am 10.0 9.6 8.1 88 0.9 CALM 0 0 0 0 - - 0.0
15/09:30am 9.5 8.4 6.8 83 1.3 N 2 2 1 1 - - 0.0
15/09:00am 9.2 8.5 7.0 86 1.0 CALM 0 0 0 0 - - 0.0
15/08:30am 8.9 8.3 7.2 89 0.8 CALM 0 4 0 2 - - 0.0
15/08:00am 8.4 7.3 6.7 89 0.8 WSW 2 4 1 2 - - 0.0
15/07:30am 8.0 7.1 6.0 87 0.9 CALM 0 6 0 3 - - 0.0
15/07:00am 7.7 6.4 6.2 90 0.7 SW 2 4 1 2 - - 0.0
15/06:30am 7.0 5.2 5.6 91 0.6 SSE 4 6 2 3 - - 0.0
15/06:00am 6.7 4.4 5.0 89 0.7 SSE 6 6 3 3 - - 0.0
15/05:30am 6.9 5.4 5.1 88 0.8 SW 2 4 1 2 - - 0.0
15/05:00am 6.5 4.6 4.7 88 0.8 SSW 4 6 2 3 - - 0.0
15/04:30am 6.8 4.9 4.8 87 0.9 SSW 4 6 2 3 - - 0.0
15/04:00am 6.7 5.2 4.9 88 0.8 SSW 2 4 1 2 - - 0.0
15/03:30am 7.0 5.5 5.2 88 0.8 SSE 2 4 1 2 - - 0.0
15/03:00am 7.0 5.5 5.2 88 0.8 SSE 2 4 1 2 - - 0.0
15/02:30am 7.0 5.1 4.8 86 1.0 S 4 4 2 2 - - 0.0
15/02:00am 7.2 5.3 5.0 86 1.0 SSW 4 6 2 3 - - 0.0
15/01:30am 7.8 5.6 5.4 85 1.1 SSE 6 7 3 4 - - 0.0
15/01:00am 8.3 6.6 5.8 84 1.1 S 4 6 2 3 - - 0.0
15/12:30am 8.5 6.8 5.8 83 1.2 SSW 4 4 2 2 - - 0.0
15/12:00am 8.9 7.5 7.4 90 0.7 WSW 4 6 2 3 - - 0.0
 
Date/Time
EST
Temp
°C
App
Temp
°C
Dew
Point
°C
Rel
Hum
%
Delta-T
°C
Wind Press
QNH
hPa
Press
MSL
hPa
Rain since
9am
mm
Dir  Spd
km/h
Gust
km/h
Spd
kts
Gust
kts
14/11:30pm 9.7 9.0 6.8 82 1.4 CALM 0 2 0 1 - - 0.0
14/11:00pm 9.1 7.1 6.9 86 1.0 ESE 7 9 4 5 - - 0.0
14/10:30pm 9.7 7.7 7.1 84 1.2 WSW 7 11 4 6 - - 0.0
14/10:00pm 11.0 9.9 8.4 84 1.3 WSW 4 6 2 3 - - 0.0
14/09:30pm 11.4 9.9 8.6 83 1.4 SE 6 7 3 4 - - 0.0
14/09:00pm 11.9 10.7 8.0 77 1.9 SW 4 6 2 3 - - 0.0
14/08:30pm 12.4 10.8 8.1 75 2.1 WSW 6 9 3 5 - - 0.0
14/08:00pm 14.1 12.0 6.7 61 3.6 W 7 11 4 6 - - 0.0
14/07:30pm 13.2 11.0 7.9 70 2.6 WNW 9 13 5 7 - - 0.0
14/07:00pm 13.0 11.1 9.1 77 2.0 NW 9 13 5 7 - - 0.0
14/06:30pm 14.4 13.7 8.6 68 2.9 NW 2 7 1 4 - - 0.0
14/06:00pm 15.6 14.5 8.4 62 3.6 SSW 4 6 2 3 - - 0.0
14/05:30pm 17.4 16.8 7.5 52 5.0 CALM 0 6 0 3 - - 0.0
14/05:00pm 20.0 19.4 7.4 44 6.4 CALM 0 0 0 0 - - 0.0
14/04:30pm 21.3 19.1 6.0 37 7.7 NNE 7 9 4 5 - - 0.0
14/04:00pm 22.4 20.1 5.8 34 8.4 NE 7 9 4 5 - - 0.0
14/03:30pm 22.9 20.8 5.8 33 8.6 NE 6 7 3 4 - - 0.0
14/03:00pm 22.6 19.9 5.5 33 8.6 NNE 9 13 5 7 - - 0.0
14/02:30pm 22.5 20.4 5.9 34 8.4 N 6 9 3 5 - - 0.0
14/02:00pm 21.8 19.4 5.3 34 8.2 N 7 11 4 6 - - 0.0
14/01:30pm 21.5 19.2 5.8 36 7.9 N 7 13 4 7 - - 0.0
14/01:00pm 20.6 18.7 7.6 43 6.7 NNW 7 13 4 7 - - 0.0
14/12:30pm 19.3 17.6 7.4 46 6.1 NNW 6 7 3 4 - - 0.0
14/12:00pm 18.4 17.1 7.5 49 5.5 NNW 4 7 2 4 - - 0.0
14/11:30am 16.6 15.2 7.3 54 4.6 SW 4 7 2 4 - - 0.0
14/11:00am 15.1 13.8 7.6 61 3.7 SW 4 6 2 3 - - 0.0
14/10:30am 13.4 11.9 7.0 65 3.1 SSW 4 6 2 3 - - 0.0
14/10:00am 11.9 11.3 7.2 73 2.3 CALM 0 4 0 2 - - 0.0
14/09:30am 10.2 9.1 6.9 80 1.6 N 2 4 1 2 - - 0.0
14/09:00am 9.2 8.2 7.2 87 0.9 NNW 2 6 1 3 - - 0.0
14/08:30am 7.4 5.9 7.0 97 0.2 N 4 6 2 3 - - 0.0
14/08:00am 6.6 5.4 6.3 98 0.1 ENE 2 2 1 1 - - 0.0
14/07:30am 4.8 3.6 4.5 98 0.1 CALM 0 0 0 0 - - 0.0
14/07:00am 4.1 2.0 3.8 98 0.1 SSE 4 4 2 2 - - 0.0
14/06:30am 4.4 2.7 4.1 98 0.1 SSW 2 4 1 2 - - 0.0
14/06:00am 4.2 2.9 3.9 98 0.1 CALM 0 2 0 1 - - 0.0
14/05:30am 4.5 2.8 4.2 98 0.1 SW 2 2 1 1 - - 0.0
14/05:00am 4.7 3.1 4.4 98 0.1 S 2 4 1 2 - - 0.0
14/04:30am 4.7 2.7 4.4 98 0.1 S 4 6 2 3 - - 0.0
14/04:00am 5.7 4.7 5.4 98 0.1 CALM 0 4 0 2 - - 0.0
14/03:30am 5.6 4.5 5.3 98 0.1 CALM 0 0 0 0 - - 0.0
14/03:00am 5.5 3.3 5.2 98 0.1 N 6 9 3 5 - - 0.0
14/02:30am 6.5 4.9 6.2 98 0.1 WNW 4 4 2 2 - - 0.0
14/02:00am 6.5 5.2 5.9 96 0.3 SE 2 2 1 1 - - 0.0
14/01:30am 7.1 6.4 6.8 98 0.1 CALM 0 2 0 1 - - 0.0
14/01:00am 7.1 6.3 6.7 97 0.2 CALM 0 0 0 0 - - 0.0
14/12:30am 7.7 6.6 7.1 96 0.3 S 2 4 1 2 - - 0.0
14/12:00am 7.5 5.4 6.8 95 0.3 S 7 11 4 6 - - 0.0
 
Date/Time
EST
Temp
°C
App
Temp
°C
Dew
Point
°C
Rel
Hum
%
Delta-T
°C
Wind Press
QNH
hPa
Press
MSL
hPa
Rain since
9am
mm
Dir  Spd
km/h
Gust
km/h
Spd
kts
Gust
kts
13/11:30pm 7.5 5.6 6.8 95 0.3 S 6 7 3 4 - - 0.0

Latest Capital City Observations: Canberra | Sydney | Melbourne | Brisbane | Adelaide | Perth | Hobart | Darwin

Other Formats:

Comma delimited format used in spreadsheet applications
http://www.bom.gov.au/fwo/IDN60901/IDN60901.94763.axf

JavaScript Object Notation format (JSON) in row-major order
http://www.bom.gov.au/fwo/IDN60901/IDN60901.94763.json